createdAt,value
2018-05-10T00:01:13.916Z,19.84
2018-05-10T00:03:43.798Z,19.72
2018-05-10T00:06:09.893Z,19.88
2018-05-10T00:08:35.923Z,19.81
2018-05-10T00:11:02.876Z,19.95
2018-05-10T00:13:29.003Z,19.19
2018-05-10T00:15:56.725Z,19.28
2018-05-10T00:18:24.418Z,19.32
2018-05-10T00:20:52.036Z,19.10
2018-05-10T00:23:18.157Z,19.05
2018-05-10T00:25:44.975Z,18.85
2018-05-10T00:28:13.663Z,19.02
2018-05-10T00:30:39.663Z,18.92
2018-05-10T00:33:07.632Z,18.78
2018-05-10T00:35:34.363Z,18.65
2018-05-10T00:38:00.466Z,18.44
2018-05-10T00:40:26.518Z,18.57
2018-05-10T00:42:52.873Z,18.83
2018-05-10T00:45:18.919Z,19.03
2018-05-10T00:47:45.044Z,18.78
2018-05-10T00:50:11.945Z,18.83
2018-05-10T00:52:39.237Z,18.68
2018-05-10T00:55:06.103Z,18.88
2018-05-10T00:57:32.203Z,18.61
2018-05-10T00:59:59.833Z,18.54
2018-05-10T01:02:25.971Z,18.61
2018-05-10T01:04:53.425Z,18.72
2018-05-10T01:07:19.540Z,18.77
2018-05-10T01:09:45.667Z,18.77
2018-05-10T01:12:11.819Z,18.83
2018-05-10T01:14:37.857Z,18.91
2018-05-10T01:17:04.629Z,18.99
2018-05-10T01:19:30.650Z,18.92
2018-05-10T01:21:57.502Z,18.72
2018-05-10T01:24:23.548Z,18.87
2018-05-10T01:26:49.657Z,18.99
2018-05-10T01:29:15.645Z,19.03
2018-05-10T01:31:41.725Z,18.97
2018-05-10T01:34:07.787Z,18.54
2018-05-10T01:36:35.149Z,18.65
2018-05-10T01:39:01.959Z,18.74
2018-05-10T01:41:28.065Z,18.70
2018-05-10T01:43:54.182Z,18.70
2018-05-10T01:46:20.204Z,18.81
2018-05-10T01:48:46.275Z,18.20
2018-05-10T01:51:13.437Z,18.29
2018-05-10T01:53:40.497Z,18.41
2018-05-10T01:56:06.551Z,18.06
2018-05-10T01:58:32.570Z,18.19
2018-05-10T02:00:58.649Z,17.99
2018-05-10T02:03:24.655Z,18.32
2018-05-10T02:05:51.321Z,17.87
2018-05-10T02:08:18.019Z,17.67
2018-05-10T02:10:44.948Z,17.67
2018-05-10T02:13:11.847Z,17.95
2018-05-10T02:15:38.812Z,18.08
2018-05-10T02:18:04.893Z,18.19
2018-05-10T02:20:33.114Z,18.22
2018-05-10T02:22:59.221Z,18.17
2018-05-10T02:25:26.039Z,17.92
2018-05-10T02:27:52.049Z,17.99
2018-05-10T02:30:18.148Z,18.08
2018-05-10T02:32:44.256Z,18.29
2018-05-10T02:35:11.183Z,18.52
2018-05-10T02:37:37.183Z,18.84
2018-05-10T02:40:03.206Z,18.77
2018-05-10T02:42:29.587Z,18.82
2018-05-10T02:44:55.695Z,18.83
2018-05-10T02:47:21.725Z,18.84
2018-05-10T02:49:49.657Z,18.84
2018-05-10T02:52:16.701Z,18.81
2018-05-10T02:54:42.887Z,18.90
2018-05-10T02:57:09.004Z,18.48
2018-05-10T02:59:35.766Z,18.10
2018-05-10T03:02:03.286Z,18.26
2018-05-10T03:04:29.491Z,18.28
2018-05-10T03:06:57.029Z,18.40
2018-05-10T03:09:23.142Z,18.27
2018-05-10T03:11:49.315Z,18.23
2018-05-10T03:14:15.439Z,18.21
2018-05-10T03:16:42.332Z,18.18
2018-05-10T03:19:08.508Z,18.26
2018-05-10T03:21:35.416Z,17.88
2018-05-10T03:24:02.369Z,17.83
2018-05-10T03:26:29.313Z,17.79
2018-05-10T03:28:55.391Z,17.96
2018-05-10T03:31:21.513Z,17.96
2018-05-10T03:33:47.609Z,17.93
2018-05-10T03:36:14.766Z,17.83
2018-05-10T03:38:41.712Z,17.98
2018-05-10T03:41:07.806Z,17.67
2018-05-10T03:43:33.859Z,17.52
2018-05-10T03:46:01.172Z,17.49
2018-05-10T03:48:31.085Z,17.69
2018-05-10T03:50:57.879Z,17.44
2018-05-10T03:53:24.005Z,17.41
2018-05-10T03:55:50.121Z,17.64
2018-05-10T03:58:16.246Z,17.56
2018-05-10T04:00:44.608Z,17.52
2018-05-10T04:03:10.750Z,17.67
2018-05-10T04:05:36.853Z,17.65
2018-05-10T04:08:03.770Z,17.45
2018-05-10T04:10:29.864Z,17.35
2018-05-10T04:12:55.948Z,17.42
2018-05-10T04:15:22.071Z,17.95
2018-05-10T04:17:48.799Z,18.05
2018-05-10T04:20:14.868Z,17.83
2018-05-10T04:22:40.948Z,17.86
2018-05-10T04:25:08.147Z,17.87
2018-05-10T04:27:36.316Z,18.18
2018-05-10T04:30:05.348Z,18.34
2018-05-10T04:32:31.554Z,18.68
2018-05-10T04:34:58.719Z,18.78
2018-05-10T04:37:25.459Z,18.66
2018-05-10T04:39:52.417Z,18.69
2018-05-10T04:42:19.348Z,18.70
2018-05-10T04:44:45.510Z,18.91
2018-05-10T04:47:11.555Z,19.01
2018-05-10T04:49:38.417Z,19.16
2018-05-10T04:52:04.552Z,19.13
2018-05-10T04:54:31.676Z,19.22
2018-05-10T04:56:57.780Z,19.34
2018-05-10T04:59:23.838Z,19.63
2018-05-10T05:01:49.887Z,19.98
2018-05-10T05:04:15.907Z,20.12
2018-05-10T05:06:42.031Z,20.18
2018-05-10T05:09:08.090Z,20.33
2018-05-10T05:11:34.138Z,20.46
2018-05-10T05:14:00.207Z,20.65
2018-05-10T05:16:26.332Z,20.73
2018-05-10T05:18:53.489Z,20.58
2018-05-10T05:21:20.773Z,20.96
2018-05-10T05:23:46.890Z,21.10
2018-05-10T05:26:12.952Z,21.22
2018-05-10T05:31:11.482Z,21.30
2018-05-10T05:33:37.592Z,20.94
2018-05-10T05:36:04.555Z,21.01
2018-05-10T05:38:30.964Z,21.10
2018-05-10T05:40:56.959Z,21.29
2018-05-10T05:43:23.280Z,21.31
2018-05-10T05:45:49.078Z,21.31
2018-05-10T05:48:15.187Z,21.18
2018-05-10T05:50:41.268Z,21.37
2018-05-10T05:53:07.933Z,21.33
2018-05-10T05:55:34.023Z,21.37
2018-05-10T05:58:00.057Z,21.52
2018-05-10T06:00:27.911Z,21.61
2018-05-10T06:02:54.605Z,21.76
2018-05-10T06:05:20.770Z,21.90
2018-05-10T06:07:46.856Z,22.31
2018-05-10T06:10:12.985Z,22.35
2018-05-10T06:12:40.534Z,22.20
2018-05-10T06:15:09.114Z,22.35
2018-05-10T06:17:37.188Z,22.42
2018-05-10T06:20:03.417Z,22.65
2018-05-10T06:22:29.801Z,22.55
2018-05-10T06:24:56.045Z,22.69
2018-05-10T06:27:24.620Z,22.73
2018-05-10T06:29:50.799Z,23.06
2018-05-10T06:32:18.271Z,23.28
2018-05-10T06:34:44.489Z,23.43
2018-05-10T06:37:11.318Z,23.58
2018-05-10T06:39:38.182Z,23.11
2018-05-10T06:42:05.106Z,23.17
2018-05-10T06:44:31.535Z,23.15
2018-05-10T06:46:57.692Z,23.42
2018-05-10T06:49:23.782Z,23.68
2018-05-10T06:51:55.754Z,24.05
2018-05-10T06:54:24.124Z,24.25
2018-05-10T06:56:51.398Z,24.14
2018-05-10T06:59:18.707Z,24.24
2018-05-10T07:01:47.272Z,24.31
2018-05-10T07:04:13.407Z,24.13
2018-05-10T07:06:39.461Z,24.33
2018-05-10T07:09:05.700Z,24.68
2018-05-10T07:14:02.659Z,24.71
2018-05-10T07:16:28.767Z,24.57
2018-05-10T07:18:55.572Z,24.31
2018-05-10T07:21:22.524Z,24.42
2018-05-10T07:23:48.563Z,24.57
2018-05-10T07:26:14.595Z,24.66
2018-05-10T07:28:40.625Z,24.92
2018-05-10T07:31:06.763Z,25.03
2018-05-10T07:33:32.782Z,24.74
2018-05-10T07:35:58.878Z,24.69
2018-05-10T07:38:25.734Z,24.77
2018-05-10T07:40:51.904Z,24.59
2018-05-10T07:43:17.953Z,24.67
2018-05-10T07:45:44.007Z,24.74
2018-05-10T07:48:10.147Z,24.95
2018-05-10T07:50:36.207Z,25.10
2018-05-10T07:53:06.639Z,25.20
2018-05-10T07:55:34.179Z,25.17
2018-05-10T07:58:00.190Z,24.74
2018-05-10T08:00:31.035Z,25.01
2018-05-10T08:03:02.795Z,24.75
2018-05-10T08:05:28.869Z,25.37
2018-05-10T08:07:56.175Z,25.64
2018-05-10T08:10:22.473Z,25.84
2018-05-10T08:12:51.017Z,25.49
2018-05-10T08:15:17.696Z,25.13
2018-05-10T08:17:43.850Z,25.46
2018-05-10T08:20:09.974Z,25.11
2018-05-10T08:22:38.798Z,24.93
2018-05-10T08:25:04.867Z,24.60
2018-05-10T08:27:31.901Z,24.52
2018-05-10T08:32:31.174Z,24.48
2018-05-10T08:34:59.111Z,24.26
2018-05-10T08:37:25.180Z,24.07
2018-05-10T08:39:51.219Z,24.19
2018-05-10T08:42:17.309Z,24.23
2018-05-10T08:44:43.430Z,24.27
2018-05-10T08:47:09.530Z,24.25
2018-05-10T08:49:36.244Z,24.28
2018-05-10T08:54:33.372Z,24.39
2018-05-10T08:56:59.413Z,24.33
2018-05-10T08:59:25.403Z,24.18
2018-05-10T09:01:51.382Z,24.17
2018-05-10T09:04:17.380Z,24.42
2018-05-10T09:06:44.352Z,24.28
2018-05-10T09:09:10.394Z,23.93
2018-05-10T09:11:36.363Z,23.92
2018-05-10T09:14:02.367Z,23.87
2018-05-10T09:16:28.451Z,23.71
2018-05-10T09:18:54.393Z,23.74
2018-05-10T09:21:20.423Z,23.84
2018-05-10T09:23:46.574Z,23.76
2018-05-10T09:26:12.641Z,23.72
2018-05-10T09:28:38.598Z,23.75
2018-05-10T09:31:04.599Z,23.76
2018-05-10T09:33:30.642Z,23.92
2018-05-10T09:36:02.145Z,23.83
2018-05-10T09:38:28.155Z,23.72
2018-05-10T09:40:54.234Z,23.60
2018-05-10T09:43:20.238Z,23.70
2018-05-10T09:45:46.386Z,23.77
2018-05-10T09:48:12.493Z,23.63
2018-05-10T09:50:39.288Z,23.66
2018-05-10T09:53:05.327Z,23.78
2018-05-10T09:55:31.297Z,23.72
2018-05-10T09:57:59.327Z,23.83
2018-05-10T10:00:25.272Z,23.81
2018-05-10T10:02:51.224Z,23.85
2018-05-10T10:05:17.272Z,23.91
2018-05-10T10:07:45.890Z,23.74
2018-05-10T10:10:12.669Z,23.80
2018-05-10T10:12:39.630Z,23.91
2018-05-10T10:20:12.527Z,23.92
2018-05-10T10:22:38.621Z,23.85
2018-05-10T10:25:04.672Z,23.72
2018-05-10T10:27:30.764Z,23.76
2018-05-10T10:29:56.736Z,23.74
2018-05-10T10:32:22.844Z,23.75
2018-05-10T10:34:48.997Z,23.79
2018-05-10T10:37:17.905Z,23.87
2018-05-10T10:39:43.892Z,23.70
2018-05-10T10:42:09.878Z,23.72
2018-05-10T10:44:37.082Z,23.83
2018-05-10T10:47:03.110Z,23.78
2018-05-10T10:49:29.150Z,23.74
2018-05-10T10:51:56.359Z,23.75
2018-05-10T10:54:22.972Z,23.82
2018-05-10T10:56:49.445Z,23.78
2018-05-10T10:59:15.762Z,23.84
2018-05-10T11:01:44.862Z,23.76
2018-05-10T11:04:11.045Z,24.02
2018-05-10T11:06:39.240Z,23.92
2018-05-10T11:09:06.452Z,23.98
2018-05-10T11:11:32.650Z,23.86
2018-05-10T11:13:58.650Z,23.92
2018-05-10T11:16:24.622Z,23.96
2018-05-10T11:18:50.615Z,23.96
2018-05-10T11:21:16.637Z,24.09
2018-05-10T11:23:42.583Z,24.06
2018-05-10T11:26:08.570Z,23.89
2018-05-10T11:28:35.038Z,24.16
2018-05-10T11:31:00.981Z,24.06
2018-05-10T11:33:26.988Z,24.01
2018-05-10T11:38:25.361Z,23.96
2018-05-10T11:40:51.485Z,24.04
2018-05-10T11:43:18.417Z,23.90
2018-05-10T11:45:44.656Z,24.05
2018-05-10T11:48:10.707Z,24.13
2018-05-10T11:50:36.846Z,24.00
2018-05-10T11:55:35.470Z,23.97
2018-05-10T11:58:01.572Z,24.08
2018-05-10T12:00:28.668Z,24.07
2018-05-10T12:02:54.771Z,24.09
2018-05-10T12:05:20.821Z,23.94
2018-05-10T12:07:46.871Z,23.97
2018-05-10T12:12:45.531Z,23.91
2018-05-10T12:21:53.081Z,23.87
2018-05-10T12:24:20.242Z,23.96
2018-05-10T12:26:47.695Z,23.95
2018-05-10T12:29:13.770Z,23.94
2018-05-10T12:31:39.748Z,23.97
2018-05-10T12:36:39.646Z,24.01
2018-05-10T12:39:08.470Z,24.05
2018-05-10T12:41:34.447Z,24.06
2018-05-10T12:44:04.917Z,24.01
2018-05-10T12:46:31.733Z,24.11
2018-05-10T12:48:57.708Z,24.07
2018-05-10T12:51:25.731Z,24.01
2018-05-10T12:53:51.695Z,23.98
2018-05-10T12:56:18.267Z,23.95
2018-05-10T12:58:45.235Z,23.92
2018-05-10T13:01:11.206Z,23.97
2018-05-10T13:03:37.168Z,23.99
2018-05-10T13:06:07.703Z,24.08
2018-05-10T13:08:34.472Z,24.06
2018-05-10T13:11:02.474Z,24.07
2018-05-10T13:18:31.663Z,24.01
2018-05-10T13:20:57.709Z,23.97
2018-05-10T13:23:24.737Z,24.00
2018-05-10T13:28:22.399Z,23.95
2018-05-10T13:30:49.740Z,23.93
2018-05-10T13:33:16.714Z,23.94
2018-05-10T13:35:44.694Z,23.88
2018-05-10T13:38:12.522Z,23.81
2018-05-10T13:40:38.528Z,23.84
2018-05-10T13:43:04.508Z,23.72
2018-05-10T13:45:30.481Z,23.70
2018-05-10T13:47:56.491Z,23.65
2018-05-10T13:50:22.481Z,23.53
2018-05-10T13:52:48.486Z,23.51
2018-05-10T13:55:14.765Z,23.57
2018-05-10T13:57:40.784Z,23.67
2018-05-10T14:00:06.808Z,23.63
2018-05-10T14:02:32.865Z,23.58
2018-05-10T14:04:58.870Z,23.61
2018-05-10T14:07:24.841Z,23.63
2018-05-10T14:09:50.798Z,23.73
2018-05-10T14:12:16.758Z,23.73
2018-05-10T14:14:42.737Z,23.64
2018-05-10T14:17:08.753Z,23.64
2018-05-10T14:19:34.691Z,23.51
2018-05-10T14:22:00.764Z,23.60
2018-05-10T14:24:26.676Z,23.62
2018-05-10T14:26:52.694Z,23.51
2018-05-10T14:29:18.677Z,23.62
2018-05-10T14:31:44.621Z,23.51
2018-05-10T14:34:10.566Z,23.50
2018-05-10T14:36:36.532Z,23.62
2018-05-10T14:39:03.518Z,23.64
2018-05-10T14:41:29.463Z,23.76
2018-05-10T14:43:55.415Z,23.81
2018-05-10T14:46:21.389Z,23.55
2018-05-10T14:48:47.359Z,23.51
2018-05-10T14:51:13.335Z,23.60
2018-05-10T14:53:39.341Z,23.70
2018-05-10T14:56:05.474Z,23.64
2018-05-10T14:58:31.417Z,23.70
2018-05-10T15:00:57.403Z,23.73
2018-05-10T15:03:23.352Z,23.66
2018-05-10T15:05:49.278Z,23.71
2018-05-10T15:08:15.264Z,23.71
2018-05-10T15:10:42.312Z,23.85
2018-05-10T15:13:08.321Z,23.71
2018-05-10T15:15:34.369Z,23.62
2018-05-10T15:18:00.285Z,23.59
2018-05-10T15:20:26.283Z,23.55
2018-05-10T15:22:52.298Z,23.66
2018-05-10T15:25:18.264Z,23.66
2018-05-10T15:27:44.286Z,23.69
2018-05-10T15:30:10.291Z,23.61
2018-05-10T15:32:36.356Z,23.54
2018-05-10T15:35:02.400Z,23.64
2018-05-10T15:37:29.393Z,23.76
2018-05-10T15:39:57.387Z,23.73
2018-05-10T15:42:23.424Z,23.94
2018-05-10T15:44:49.424Z,23.86
2018-05-10T15:47:15.411Z,23.83
2018-05-10T15:49:41.561Z,23.87
2018-05-10T15:52:07.662Z,23.86
2018-05-10T15:54:35.689Z,23.92
2018-05-10T15:57:01.835Z,23.96
2018-05-10T15:59:28.118Z,24.05
2018-05-10T16:01:54.110Z,24.01
2018-05-10T16:04:20.218Z,24.01
2018-05-10T16:06:46.297Z,23.97
2018-05-10T16:09:12.337Z,23.98
2018-05-10T16:11:38.411Z,23.96
2018-05-10T16:14:04.398Z,23.94
2018-05-10T16:16:30.439Z,23.92
2018-05-10T16:18:56.422Z,23.91
2018-05-10T16:21:22.404Z,23.89
2018-05-10T16:23:48.361Z,23.83
2018-05-10T16:26:14.379Z,23.80
2018-05-10T16:28:40.337Z,23.80
2018-05-10T16:31:06.442Z,23.75
2018-05-10T16:33:32.509Z,23.76
2018-05-10T16:35:58.423Z,23.87
2018-05-10T16:38:24.405Z,23.90
2018-05-10T16:40:50.403Z,23.86
2018-05-10T16:43:17.703Z,23.84
2018-05-10T16:45:43.778Z,23.72
2018-05-10T16:48:09.740Z,23.58
2018-05-10T16:50:35.763Z,23.61
2018-05-10T16:53:01.925Z,23.61
2018-05-10T16:55:28.157Z,23.59
2018-05-10T16:57:54.128Z,23.61
2018-05-10T17:00:20.184Z,23.51
2018-05-10T17:02:46.207Z,23.50
2018-05-10T17:05:12.194Z,23.41
2018-05-10T17:07:38.194Z,23.38
2018-05-10T17:10:04.222Z,23.38
2018-05-10T17:12:30.206Z,23.41
2018-05-10T17:14:56.298Z,23.36
2018-05-10T17:17:22.464Z,23.37
2018-05-10T17:19:48.439Z,23.05
2018-05-10T17:22:14.497Z,22.97
2018-05-10T17:24:40.484Z,22.97
2018-05-10T17:27:06.511Z,23.02
2018-05-10T17:29:32.533Z,22.99
2018-05-10T17:31:58.512Z,22.81
2018-05-10T17:34:24.517Z,22.71
2018-05-10T17:36:50.475Z,22.59
2018-05-10T17:39:16.553Z,22.52
2018-05-10T17:41:42.609Z,22.54
2018-05-10T17:44:08.542Z,22.59
2018-05-10T17:46:34.528Z,22.52
2018-05-10T17:49:01.203Z,22.45
2018-05-10T17:51:27.185Z,22.30
2018-05-10T17:53:53.211Z,22.28
2018-05-10T17:56:19.202Z,22.31
2018-05-10T17:58:45.203Z,22.32
2018-05-10T18:01:11.374Z,22.35
2018-05-10T18:03:37.301Z,22.34
2018-05-10T18:06:03.316Z,22.42
2018-05-10T18:08:29.329Z,22.52
2018-05-10T18:10:55.310Z,22.75
2018-05-10T18:13:21.994Z,22.50
2018-05-10T18:15:47.968Z,22.43
2018-05-10T18:18:13.908Z,22.39
2018-05-10T18:20:39.893Z,22.39
2018-05-10T18:23:06.665Z,22.34
2018-05-10T18:25:32.676Z,22.35
2018-05-10T18:27:58.653Z,22.28
2018-05-10T18:35:29.676Z,22.34
2018-05-10T18:37:55.887Z,22.21
2018-05-10T18:40:22.099Z,22.20
2018-05-10T18:42:52.103Z,22.21
2018-05-10T18:45:18.155Z,22.24
2018-05-10T18:47:48.286Z,22.26
2018-05-10T18:50:15.384Z,22.26
2018-05-10T18:52:41.385Z,22.19
2018-05-10T18:55:07.425Z,22.38
2018-05-10T18:57:33.470Z,22.38
2018-05-10T18:59:59.495Z,21.81
2018-05-10T19:02:25.468Z,21.88
2018-05-10T19:04:51.497Z,21.50
2018-05-10T19:07:17.594Z,21.48
2018-05-10T19:09:43.644Z,21.88
2018-05-10T19:12:09.666Z,22.14
2018-05-10T19:14:35.694Z,21.98
2018-05-10T19:17:01.704Z,22.00
2018-05-10T19:19:28.823Z,22.12
2018-05-10T19:21:54.952Z,22.18
2018-05-10T19:24:23.043Z,22.21
2018-05-10T19:26:54.220Z,22.22
2018-05-10T19:34:23.556Z,22.25
2018-05-10T19:36:51.580Z,22.21
2018-05-10T19:39:17.879Z,22.18
2018-05-10T19:41:44.052Z,22.21
2018-05-10T19:46:41.774Z,22.26
2018-05-10T19:49:07.911Z,22.24
2018-05-10T19:51:33.988Z,22.23
2018-05-10T19:54:00.120Z,22.22
2018-05-10T19:56:26.190Z,22.21
2018-05-10T19:58:52.214Z,22.17
2018-05-10T20:01:18.198Z,22.13
2018-05-10T20:03:44.222Z,22.00
2018-05-10T20:06:10.316Z,22.01
2018-05-10T20:08:41.824Z,21.99
2018-05-10T20:11:09.099Z,21.96
2018-05-10T20:13:35.140Z,22.02
2018-05-10T20:16:04.255Z,22.08
2018-05-10T20:18:30.289Z,22.02
2018-05-10T20:20:56.993Z,22.00
2018-05-10T20:23:23.269Z,22.02
2018-05-10T20:25:49.246Z,21.96
2018-05-10T20:28:15.283Z,21.97
2018-05-10T20:30:41.228Z,21.95
2018-05-10T20:33:10.852Z,21.88
2018-05-10T20:35:37.144Z,21.90
2018-05-10T20:38:03.720Z,21.88
2018-05-10T20:40:29.823Z,21.83
2018-05-10T20:42:56.666Z,21.67
2018-05-10T20:45:23.729Z,21.64
2018-05-10T20:47:49.843Z,21.43
2018-05-10T20:50:16.931Z,21.40
2018-05-10T20:52:43.644Z,21.39
2018-05-10T20:55:10.505Z,21.57
2018-05-10T20:57:36.445Z,21.47
2018-05-10T21:00:02.515Z,21.38
2018-05-10T21:02:28.734Z,21.27
2018-05-10T21:04:54.922Z,21.42
2018-05-10T21:09:53.463Z,21.39
2018-05-10T21:12:19.545Z,21.22
2018-05-10T21:14:49.016Z,21.20
2018-05-10T21:17:15.039Z,21.12
2018-05-10T21:19:42.120Z,21.09
2018-05-10T21:22:08.083Z,21.17
2018-05-10T21:24:34.080Z,21.11
2018-05-10T21:27:00.025Z,21.01
2018-05-10T21:29:26.019Z,21.00
2018-05-10T21:31:51.987Z,20.89
2018-05-10T21:34:17.982Z,20.84
2018-05-10T21:36:46.065Z,20.99
2018-05-10T21:39:12.765Z,21.01
2018-05-10T21:41:38.707Z,20.94
2018-05-10T21:44:04.667Z,21.08
2018-05-10T21:49:02.945Z,21.00
2018-05-10T21:51:29.148Z,21.01
2018-05-10T21:54:03.230Z,21.03
2018-05-10T21:59:01.658Z,20.96
2018-05-10T22:01:27.602Z,20.95
2018-05-10T22:03:54.704Z,20.86
2018-05-10T22:06:21.540Z,20.85
2018-05-10T22:08:49.437Z,20.77
2018-05-10T22:11:15.566Z,20.67
2018-05-10T22:13:41.517Z,20.70
2018-05-10T22:16:11.202Z,20.70
2018-05-10T22:18:37.245Z,20.54
2018-05-10T22:21:03.169Z,20.63
2018-05-10T22:23:29.166Z,20.52
2018-05-10T22:25:55.179Z,20.48
2018-05-10T22:28:21.113Z,20.52
2018-05-10T22:30:47.096Z,20.48
2018-05-10T22:33:13.082Z,20.48
2018-05-10T22:35:39.470Z,20.44
2018-05-10T22:38:05.409Z,20.52
2018-05-10T22:40:31.437Z,20.50
2018-05-10T22:42:57.395Z,20.44
2018-05-10T22:45:23.399Z,20.31
2018-05-10T22:47:49.379Z,20.35
2018-05-10T22:50:15.332Z,20.31
2018-05-10T22:52:41.308Z,20.45
2018-05-10T22:55:07.313Z,20.39
2018-05-10T22:57:33.271Z,20.34
2018-05-10T22:59:59.240Z,20.36
2018-05-10T23:02:25.218Z,20.21
2018-05-10T23:04:51.220Z,20.28
2018-05-10T23:07:17.218Z,20.15
2018-05-10T23:09:43.249Z,20.09
2018-05-10T23:12:09.211Z,20.01
2018-05-10T23:14:35.188Z,20.13
2018-05-10T23:17:01.178Z,20.21
2018-05-10T23:19:27.130Z,20.14
2018-05-10T23:21:53.090Z,20.11
2018-05-10T23:24:19.078Z,19.92
2018-05-10T23:26:45.085Z,20.08
2018-05-10T23:29:11.057Z,20.00
2018-05-10T23:31:37.042Z,19.91
2018-05-10T23:34:02.988Z,19.91
2018-05-10T23:36:28.926Z,20.14
2018-05-10T23:38:54.907Z,19.77
2018-05-10T23:41:20.853Z,19.78
2018-05-10T23:43:46.817Z,20.03
2018-05-10T23:46:12.820Z,20.05
2018-05-10T23:48:38.776Z,20.04
2018-05-10T23:51:04.728Z,20.11
2018-05-10T23:53:30.670Z,20.04
2018-05-10T23:55:56.630Z,19.89
2018-05-10T23:58:22.564Z,19.85
